createdAt,value
2023-01-20T00:00:09.410Z,3.51
2023-01-20T00:05:19.849Z,3.53
2023-01-20T00:10:21.560Z,3.24
2023-01-20T00:15:23.197Z,3.20
2023-01-20T00:20:24.869Z,3.17
2023-01-20T00:25:26.832Z,3.18
2023-01-20T00:30:28.574Z,3.02
2023-01-20T00:35:30.356Z,3.15
2023-01-20T00:40:32.120Z,3.14
2023-01-20T00:45:33.785Z,2.69
2023-01-20T00:50:35.363Z,2.57
2023-01-20T00:55:37.093Z,2.51
2023-01-20T01:00:38.848Z,2.40
2023-01-20T01:05:40.587Z,2.60
2023-01-20T01:10:42.326Z,2.78
2023-01-20T01:15:51.804Z,2.96
2023-01-20T01:20:54.001Z,3.07
2023-01-20T01:25:56.191Z,2.98
2023-01-20T01:31:06.549Z,2.95
2023-01-20T01:36:12.745Z,2.91
2023-01-20T01:41:15.466Z,2.83
2023-01-20T01:46:17.371Z,2.86
2023-01-20T01:51:28.183Z,2.97
2023-01-20T01:56:30.966Z,2.87
2023-01-20T02:01:37.081Z,2.52
2023-01-20T02:06:42.390Z,2.19
2023-01-20T02:11:47.279Z,2.28
2023-01-20T02:16:54.938Z,2.38
2023-01-20T02:22:21.364Z,2.36
2023-01-20T02:27:22.787Z,2.42
2023-01-20T02:32:41.541Z,2.45
2023-01-20T02:37:55.426Z,2.35
2023-01-20T02:43:11.547Z,2.45
2023-01-20T02:48:25.799Z,2.44
2023-01-20T02:53:36.398Z,2.39
2023-01-20T02:58:48.741Z,2.61
2023-01-20T03:03:53.216Z,2.76
2023-01-20T03:08:58.243Z,2.88
2023-01-20T03:14:06.144Z,2.79
2023-01-20T03:19:08.435Z,2.84
2023-01-20T03:24:10.773Z,2.72
2023-01-20T03:29:12.329Z,2.73
2023-01-20T03:34:18.121Z,2.60
2023-01-20T03:39:20.539Z,2.48
2023-01-20T03:45:05.813Z,2.44
2023-01-20T03:50:17.731Z,2.31
2023-01-20T03:55:36.647Z,2.13
2023-01-20T04:00:44.825Z,1.90
2023-01-20T04:05:49.193Z,1.80
2023-01-20T04:10:51.511Z,1.84
2023-01-20T04:15:53.318Z,1.89
2023-01-20T04:21:02.156Z,1.93
2023-01-20T04:26:03.853Z,1.88
2023-01-20T04:31:05.654Z,1.96
2023-01-20T04:36:07.676Z,1.94
2023-01-20T04:41:11.610Z,1.96
2023-01-20T04:46:14.256Z,1.96
2023-01-20T04:51:16.056Z,1.98
2023-01-20T04:56:17.577Z,1.99
2023-01-20T05:01:19.361Z,1.92
2023-01-20T05:06:20.997Z,1.88
2023-01-20T05:11:22.653Z,1.96
2023-01-20T05:16:24.365Z,2.03
2023-01-20T05:21:27.479Z,1.90
2023-01-20T05:26:29.019Z,1.97
2023-01-20T05:31:31.349Z,2.04
2023-01-20T05:36:33.073Z,1.97
2023-01-20T05:41:34.601Z,1.89
2023-01-20T05:46:36.192Z,1.94
2023-01-20T05:51:37.788Z,1.90
2023-01-20T05:56:39.352Z,1.89
2023-01-20T06:01:40.951Z,1.91
2023-01-20T06:06:42.553Z,1.93
2023-01-20T06:11:44.083Z,1.90
2023-01-20T06:16:45.644Z,1.80
2023-01-20T06:21:48.040Z,1.83
2023-01-20T06:26:52.821Z,1.93
2023-01-20T06:31:54.406Z,1.94
2023-01-20T06:36:56.318Z,1.95
2023-01-20T06:41:59.120Z,1.96
2023-01-20T06:47:00.717Z,1.92
2023-01-20T06:52:02.254Z,1.90
2023-01-20T06:57:03.791Z,1.89
2023-01-20T07:02:05.432Z,1.94
2023-01-20T07:07:07.106Z,1.87
2023-01-20T07:12:08.658Z,1.84
2023-01-20T07:17:12.117Z,1.93
2023-01-20T07:22:13.756Z,1.89
2023-01-20T07:27:15.339Z,1.98
2023-01-20T07:32:16.860Z,1.99
2023-01-20T07:37:18.428Z,1.93
2023-01-20T07:42:20.008Z,1.96
2023-01-20T07:47:22.511Z,1.94
2023-01-20T07:52:24.051Z,2.06
2023-01-20T07:57:25.569Z,2.07
2023-01-20T08:02:27.100Z,2.02
2023-01-20T08:07:28.606Z,2.05
2023-01-20T08:12:30.524Z,2.04
2023-01-20T08:17:32.133Z,2.09
2023-01-20T08:22:34.473Z,2.32
2023-01-20T08:27:36.105Z,2.35
2023-01-20T08:32:37.686Z,2.39
2023-01-20T08:37:39.512Z,2.52
2023-01-20T08:42:41.173Z,2.55
2023-01-20T08:47:42.991Z,2.60
2023-01-20T08:52:44.879Z,2.56
2023-01-20T08:57:46.448Z,2.66
2023-01-20T09:02:51.855Z,2.73
2023-01-20T09:07:53.464Z,3.55
2023-01-20T09:12:55.035Z,3.54
2023-01-20T09:17:56.642Z,4.71
2023-01-20T09:23:01.663Z,5.44
2023-01-20T09:28:03.339Z,5.78
2023-01-20T09:33:05.047Z,5.94
2023-01-20T09:38:06.576Z,6.05
2023-01-20T09:43:40.037Z,5.29
2023-01-20T09:49:27.278Z,5.23
2023-01-20T09:54:38.481Z,6.22
2023-01-20T09:59:50.747Z,5.64
2023-01-20T10:04:57.272Z,4.83
2023-01-20T10:10:16.553Z,4.71
2023-01-20T10:15:26.721Z,4.38
2023-01-20T10:20:36.070Z,4.40
2023-01-20T10:25:52.995Z,3.84
2023-01-20T10:30:58.552Z,4.18
2023-01-20T10:36:00.850Z,4.23
2023-01-20T10:41:19.536Z,4.48
2023-01-20T10:46:24.234Z,4.71
2023-01-20T10:51:34.797Z,4.38
2023-01-20T10:56:46.271Z,4.38
2023-01-20T11:01:59.414Z,4.65
2023-01-20T11:07:16.974Z,4.38
2023-01-20T11:12:24.614Z,4.36
2023-01-20T11:17:26.943Z,4.09
2023-01-20T11:22:33.166Z,4.17
2023-01-20T11:27:44.575Z,4.09
2023-01-20T11:32:46.263Z,3.83
2023-01-20T11:37:48.251Z,4.03
2023-01-20T11:42:51.803Z,3.70
2023-01-20T11:48:03.693Z,3.91
2023-01-20T11:53:40.582Z,4.10
2023-01-20T11:59:22.523Z,4.16
2023-01-20T12:04:33.153Z,4.22
2023-01-20T12:09:39.238Z,4.04
2023-01-20T12:14:46.184Z,4.24
2023-01-20T12:19:57.140Z,4.20
2023-01-20T12:25:04.103Z,4.11
2023-01-20T12:30:34.521Z,4.09
2023-01-20T12:35:46.995Z,3.91
2023-01-20T12:40:52.632Z,3.75
2023-01-20T12:46:23.322Z,3.59
2023-01-20T12:52:09.466Z,3.13
2023-01-20T12:57:25.665Z,2.78
2023-01-20T13:03:11.648Z,2.72
2023-01-20T13:08:18.991Z,3.03
2023-01-20T13:13:32.440Z,3.08
2023-01-20T13:18:51.140Z,3.06
2023-01-20T13:23:53.151Z,2.86
2023-01-20T13:28:57.170Z,2.36
2023-01-20T13:34:23.814Z,2.22
2023-01-20T13:39:42.083Z,2.11
2023-01-20T13:44:43.927Z,2.10
2023-01-20T13:49:53.698Z,2.01
2023-01-20T13:54:55.297Z,1.96
2023-01-20T13:59:57.157Z,2.03
2023-01-20T14:04:58.941Z,2.09
2023-01-20T14:10:01.931Z,1.88
2023-01-20T14:15:03.820Z,1.88
2023-01-20T14:20:20.266Z,2.06
2023-01-20T14:25:27.355Z,2.12
2023-01-20T14:30:29.066Z,2.12
2023-01-20T14:35:34.045Z,2.19
2023-01-20T14:40:35.989Z,1.89
2023-01-20T14:45:38.031Z,1.84
2023-01-20T14:50:40.679Z,1.80
2023-01-20T14:55:55.975Z,1.81
2023-01-20T15:01:05.085Z,1.81
2023-01-20T15:06:09.834Z,1.79
2023-01-20T15:11:14.621Z,1.72
2023-01-20T15:16:31.300Z,1.77
2023-01-20T15:21:35.536Z,1.78
2023-01-20T15:26:38.095Z,1.80
2023-01-20T15:31:39.815Z,1.78
2023-01-20T15:36:41.663Z,1.84
2023-01-20T15:41:43.747Z,1.82
2023-01-20T15:46:45.476Z,1.89
2023-01-20T15:51:47.127Z,1.93
2023-01-20T15:56:48.708Z,1.94
2023-01-20T16:01:50.834Z,1.96
2023-01-20T16:06:52.664Z,1.97
2023-01-20T16:11:56.036Z,1.97
2023-01-20T16:16:57.653Z,1.90
2023-01-20T16:21:59.314Z,1.94
2023-01-20T16:27:03.830Z,1.93
2023-01-20T16:32:05.938Z,1.91
2023-01-20T16:37:07.536Z,1.95
2023-01-20T16:42:14.222Z,1.99
2023-01-20T16:47:16.039Z,2.02
2023-01-20T16:52:17.639Z,1.97
2023-01-20T16:57:19.391Z,1.93
2023-01-20T17:02:21.156Z,2.03
2023-01-20T17:07:23.235Z,1.99
2023-01-20T17:12:24.870Z,1.98
2023-01-20T17:17:26.458Z,1.99
2023-01-20T17:22:28.122Z,1.97
2023-01-20T17:27:29.886Z,1.98
2023-01-20T17:32:31.919Z,1.93
2023-01-20T17:37:33.887Z,1.99
2023-01-20T17:42:35.524Z,2.01
2023-01-20T17:47:37.385Z,2.02
2023-01-20T17:52:39.263Z,2.04
2023-01-20T17:57:40.973Z,2.10
2023-01-20T18:02:42.693Z,1.96
2023-01-20T18:07:44.396Z,1.99
2023-01-20T18:12:47.224Z,2.06
2023-01-20T18:17:49.194Z,1.94
2023-01-20T18:22:51.289Z,1.91
2023-01-20T18:27:53.221Z,1.87
2023-01-20T18:32:56.782Z,1.89
2023-01-20T18:37:58.515Z,1.75
2023-01-20T18:43:00.344Z,1.77
2023-01-20T18:48:02.453Z,1.76
2023-01-20T18:53:04.373Z,1.79
2023-01-20T18:58:06.061Z,1.73
2023-01-20T19:03:07.944Z,1.47
2023-01-20T19:08:09.759Z,1.25
2023-01-20T19:13:12.495Z,1.34
2023-01-20T19:18:14.054Z,1.39
2023-01-20T19:23:15.642Z,1.33
2023-01-20T19:28:17.444Z,1.28
2023-01-20T19:33:19.079Z,1.37
2023-01-20T19:38:20.805Z,1.38
2023-01-20T19:43:22.424Z,1.46
2023-01-20T19:48:24.001Z,1.37
2023-01-20T19:53:25.626Z,1.37
2023-01-20T19:58:27.706Z,1.32
2023-01-20T20:03:29.266Z,1.33
2023-01-20T20:08:31.015Z,1.41
2023-01-20T20:13:32.624Z,1.39
2023-01-20T20:18:34.305Z,1.30
2023-01-20T20:23:36.007Z,1.23
2023-01-20T20:28:37.702Z,1.11
2023-01-20T20:33:39.433Z,1.14
2023-01-20T20:38:41.484Z,1.05
2023-01-20T20:43:43.577Z,1.07
2023-01-20T20:48:45.484Z,1.09
2023-01-20T20:53:47.094Z,1.10
2023-01-20T20:59:00.967Z,1.08
2023-01-20T21:04:03.695Z,1.07
2023-01-20T21:09:05.448Z,1.02
2023-01-20T21:14:07.109Z,0.92
2023-01-20T21:19:08.834Z,0.88
2023-01-20T21:24:10.503Z,0.94
2023-01-20T21:29:12.351Z,0.91
2023-01-20T21:34:15.459Z,0.91
2023-01-20T21:39:17.644Z,0.82
2023-01-20T21:44:19.558Z,0.87
2023-01-20T21:49:21.263Z,0.81
2023-01-20T21:54:23.042Z,0.77
2023-01-20T21:59:25.477Z,0.70
2023-01-20T22:04:27.285Z,0.72
2023-01-20T22:09:28.871Z,0.73
2023-01-20T22:14:30.900Z,0.70
2023-01-20T22:19:32.933Z,0.70
2023-01-20T22:24:34.535Z,0.67
2023-01-20T22:29:36.204Z,0.70
2023-01-20T22:34:37.971Z,0.67
2023-01-20T22:39:39.465Z,0.53
2023-01-20T22:44:41.221Z,0.36
2023-01-20T22:49:42.913Z,0.16
2023-01-20T22:54:44.752Z,0.32
2023-01-20T22:59:46.295Z,-0.02
2023-01-20T23:04:47.841Z,-0.05
2023-01-20T23:09:49.553Z,-0.41
2023-01-20T23:14:51.121Z,-0.68
2023-01-20T23:19:52.944Z,-0.76
2023-01-20T23:24:54.567Z,-0.71
2023-01-20T23:29:56.266Z,-0.69
2023-01-20T23:34:57.921Z,-0.39
2023-01-20T23:39:59.579Z,-0.19
2023-01-20T23:45:01.236Z,0.00
2023-01-20T23:50:03.651Z,-0.14
2023-01-20T23:55:05.767Z,-0.29
